createdAt,value
2019-04-16T00:00:36.998Z,8.69
2019-04-16T00:05:45.496Z,8.66
2019-04-16T00:11:07.106Z,8.70
2019-04-16T00:16:13.763Z,8.59
2019-04-16T00:21:41.887Z,8.63
2019-04-16T00:26:58.067Z,8.58
2019-04-16T00:32:18.428Z,8.59
2019-04-16T00:37:23.867Z,8.57
2019-04-16T00:42:30.427Z,8.54
2019-04-16T00:47:35.977Z,8.47
2019-04-16T00:52:43.228Z,8.49
2019-04-16T00:57:49.281Z,8.44
2019-04-16T01:02:55.916Z,8.46
2019-04-16T01:08:01.421Z,8.45
2019-04-16T01:13:07.263Z,8.42
2019-04-16T01:18:12.934Z,8.36
2019-04-16T01:23:18.480Z,8.36
2019-04-16T01:28:29.411Z,8.36
2019-04-16T01:33:53.561Z,8.33
2019-04-16T01:39:14.937Z,8.27
2019-04-16T01:44:10.418Z,8.27
2019-04-16T01:49:16.000Z,8.18
2019-04-16T01:54:22.915Z,8.25
2019-04-16T01:59:28.840Z,8.20
2019-04-16T02:04:34.197Z,8.15
2019-04-16T02:09:39.824Z,8.12
2019-04-16T02:14:47.374Z,8.07
2019-04-16T02:19:53.667Z,8.05
2019-04-16T02:24:59.293Z,8.03
2019-04-16T02:30:05.900Z,7.87
2019-04-16T02:35:11.437Z,7.84
2019-04-16T02:40:18.773Z,7.70
2019-04-16T02:45:24.598Z,7.72
2019-04-16T02:51:05.251Z,7.65
2019-04-16T02:56:26.254Z,7.59
2019-04-16T03:01:56.898Z,7.56
2019-04-16T03:07:03.337Z,7.49
2019-04-16T03:12:09.211Z,7.45
2019-04-16T03:17:32.501Z,7.45
2019-04-16T03:22:37.958Z,7.32
2019-04-16T03:27:43.228Z,7.29
2019-04-16T03:32:50.232Z,7.27
2019-04-16T03:37:55.603Z,7.22
2019-04-16T03:43:03.959Z,7.13
2019-04-16T03:48:08.086Z,7.07
2019-04-16T03:53:16.639Z,7.03
2019-04-16T03:58:20.672Z,6.96
2019-04-16T04:03:26.943Z,6.90
2019-04-16T04:08:32.506Z,6.86
2019-04-16T04:13:37.895Z,6.85
2019-04-16T04:18:43.962Z,6.64
2019-04-16T04:23:50.635Z,6.50
2019-04-16T04:28:56.277Z,6.30
2019-04-16T04:34:01.803Z,6.18
2019-04-16T04:39:09.956Z,6.17
2019-04-16T04:44:14.824Z,6.19
2019-04-16T04:49:20.243Z,5.99
2019-04-16T04:54:26.054Z,6.00
2019-04-16T04:59:31.346Z,5.98
2019-04-16T05:04:55.600Z,5.95
2019-04-16T05:10:01.202Z,5.88
2019-04-16T05:15:06.925Z,5.92
2019-04-16T05:20:15.447Z,6.00
2019-04-16T05:25:19.608Z,6.13
2019-04-16T05:30:24.922Z,6.30
2019-04-16T05:35:30.476Z,6.48
2019-04-16T05:40:35.855Z,6.73
2019-04-16T05:45:41.326Z,6.93
2019-04-16T05:50:46.661Z,7.19
2019-04-16T05:56:29.031Z,7.48
2019-04-16T06:01:42.440Z,7.79
2019-04-16T06:06:48.915Z,8.17
2019-04-16T06:11:54.198Z,8.47
2019-04-16T06:17:17.452Z,8.92
2019-04-16T06:22:37.428Z,9.23
2019-04-16T06:27:58.068Z,9.61
2019-04-16T06:33:06.400Z,9.93
2019-04-16T06:38:36.751Z,10.15
2019-04-16T06:43:45.154Z,10.48
2019-04-16T06:49:14.370Z,10.78
2019-04-16T06:54:34.557Z,10.86
2019-04-16T06:59:59.589Z,10.58
2019-04-16T07:05:21.630Z,11.44
2019-04-16T07:10:43.719Z,11.35
2019-04-16T07:15:37.622Z,11.60
2019-04-16T07:20:45.716Z,12.17
2019-04-16T07:25:51.120Z,11.62
2019-04-16T07:31:25.915Z,11.41
2019-04-16T07:36:40.026Z,11.68
2019-04-16T07:42:10.757Z,12.10
2019-04-16T07:47:33.253Z,12.24
2019-04-16T07:53:03.684Z,12.73
2019-04-16T07:58:09.090Z,13.16
2019-04-16T08:03:15.418Z,13.20
2019-04-16T08:08:24.300Z,13.35
2019-04-16T08:13:33.262Z,13.64
2019-04-16T08:18:47.581Z,13.88
2019-04-16T08:24:06.143Z,14.12
2019-04-16T08:29:11.451Z,14.20
2019-04-16T08:34:17.145Z,14.40
2019-04-16T08:39:23.436Z,14.83
2019-04-16T08:44:29.111Z,14.77
2019-04-16T08:49:34.428Z,15.19
2019-04-16T08:54:40.314Z,14.98
2019-04-16T08:59:45.687Z,15.26
2019-04-16T09:04:51.407Z,15.23
2019-04-16T09:09:57.958Z,15.29
2019-04-16T09:15:05.242Z,15.54
2019-04-16T09:20:16.192Z,16.01
2019-04-16T09:25:42.551Z,16.01
2019-04-16T09:31:09.388Z,15.48
2019-04-16T09:36:49.820Z,15.91
2019-04-16T09:41:56.209Z,16.18
2019-04-16T09:47:05.064Z,16.59
2019-04-16T09:52:09.583Z,16.68
2019-04-16T09:57:14.959Z,16.79
2019-04-16T10:02:23.800Z,16.79
2019-04-16T10:07:29.170Z,16.91
2019-04-16T10:12:34.900Z,16.67
2019-04-16T10:17:40.456Z,16.77
2019-04-16T10:22:45.870Z,17.57
2019-04-16T10:27:57.782Z,17.89
2019-04-16T10:33:03.051Z,18.10
2019-04-16T10:38:27.099Z,18.11
2019-04-16T10:43:48.818Z,18.02
2019-04-16T10:49:13.066Z,18.24
2019-04-16T10:54:43.697Z,18.39
2019-04-16T11:00:12.352Z,18.55
2019-04-16T11:05:35.496Z,18.81
2019-04-16T11:10:40.909Z,19.18
2019-04-16T11:15:46.473Z,19.63
2019-04-16T11:20:51.963Z,18.76
2019-04-16T11:25:57.297Z,18.93
2019-04-16T11:31:04.965Z,20.25
2019-04-16T11:36:18.850Z,20.25
2019-04-16T11:41:17.336Z,21.02
2019-04-16T11:46:22.820Z,21.55
2019-04-16T11:51:29.550Z,21.84
2019-04-16T11:56:35.895Z,22.32
2019-04-16T12:02:03.190Z,22.89
2019-04-16T12:07:34.855Z,23.78
2019-04-16T12:13:08.401Z,24.30
2019-04-16T12:18:44.896Z,24.29
2019-04-16T12:24:21.182Z,25.76
2019-04-16T12:29:46.177Z,26.28
2019-04-16T12:35:16.346Z,26.27
2019-04-16T12:40:46.563Z,26.35
2019-04-16T12:46:13.806Z,23.52
2019-04-16T12:51:29.668Z,24.19
2019-04-16T12:56:52.703Z,24.95
2019-04-16T13:02:32.325Z,23.27
2019-04-16T13:07:48.754Z,22.64
2019-04-16T13:13:20.163Z,25.62
2019-04-16T13:18:33.443Z,25.83
2019-04-16T13:24:02.243Z,26.88
2019-04-16T13:29:10.917Z,24.82
2019-04-16T13:34:18.596Z,26.48
2019-04-16T13:39:35.718Z,27.26
2019-04-16T13:44:47.849Z,28.28
2019-04-16T13:50:15.304Z,27.59
2019-04-16T13:55:34.272Z,25.61
2019-04-16T14:00:43.973Z,25.58
2019-04-16T14:05:49.360Z,23.94
2019-04-16T14:10:55.042Z,23.23
2019-04-16T14:16:00.696Z,23.33
2019-04-16T14:21:06.023Z,24.72
2019-04-16T14:26:11.464Z,23.98
2019-04-16T14:31:17.905Z,23.53
2019-04-16T14:36:24.098Z,23.63
2019-04-16T14:41:29.578Z,24.11
2019-04-16T14:46:36.298Z,22.94
2019-04-16T14:51:41.753Z,21.43
2019-04-16T14:56:54.822Z,21.11
2019-04-16T15:02:09.440Z,21.45
2019-04-16T15:07:20.564Z,20.73
2019-04-16T15:12:44.867Z,23.11
2019-04-16T15:18:09.136Z,25.07
2019-04-16T15:23:33.145Z,26.30
2019-04-16T15:28:47.207Z,27.64
2019-04-16T15:34:11.725Z,27.08
2019-04-16T15:39:22.175Z,24.51
2019-04-16T15:44:40.789Z,24.61
2019-04-16T15:49:55.709Z,24.28
2019-04-16T15:55:24.590Z,24.46
2019-04-16T16:00:47.638Z,23.95
2019-04-16T16:05:58.005Z,23.12
2019-04-16T16:11:06.725Z,21.92
2019-04-16T16:16:17.440Z,20.72
2019-04-16T16:21:19.624Z,20.56
2019-04-16T16:26:24.903Z,20.11
2019-04-16T16:31:33.590Z,19.43
2019-04-16T16:36:40.475Z,19.69
2019-04-16T16:41:46.612Z,19.46
2019-04-16T16:47:00.768Z,19.05
2019-04-16T16:52:26.801Z,18.84
2019-04-16T16:57:35.842Z,18.58
2019-04-16T17:02:50.602Z,18.31
2019-04-16T17:07:55.942Z,17.99
2019-04-16T17:13:01.430Z,17.67
2019-04-16T17:18:06.929Z,17.31
2019-04-16T17:23:16.492Z,17.26
2019-04-16T17:28:19.563Z,16.92
2019-04-16T17:33:24.859Z,16.82
2019-04-16T17:38:30.320Z,16.66
2019-04-16T17:44:02.262Z,16.54
2019-04-16T17:49:26.757Z,16.39
2019-04-16T17:54:38.456Z,16.19
2019-04-16T17:59:51.216Z,15.95
2019-04-16T18:05:13.010Z,15.99
2019-04-16T18:10:46.805Z,15.86
2019-04-16T18:16:07.394Z,15.69
2019-04-16T18:21:30.544Z,15.55
2019-04-16T18:27:07.068Z,15.40
2019-04-16T18:32:35.116Z,15.32
2019-04-16T18:37:50.304Z,15.22
2019-04-16T18:43:29.622Z,15.08
2019-04-16T18:48:36.730Z,14.97
2019-04-16T18:53:43.424Z,14.89
2019-04-16T18:58:49.419Z,14.82
2019-04-16T19:03:55.362Z,14.67
2019-04-16T19:09:01.364Z,14.59
2019-04-16T19:14:10.169Z,14.47
2019-04-16T19:19:15.507Z,14.30
2019-04-16T19:24:21.340Z,14.17
2019-04-16T19:29:27.605Z,14.07
2019-04-16T19:34:32.999Z,14.01
2019-04-16T19:39:39.369Z,13.93
2019-04-16T19:44:45.136Z,13.82
2019-04-16T19:49:50.929Z,13.72
2019-04-16T19:54:56.454Z,13.53
2019-04-16T20:00:01.984Z,13.56
2019-04-16T20:05:08.329Z,13.49
2019-04-16T20:10:14.334Z,13.37
2019-04-16T20:15:20.382Z,13.34
2019-04-16T20:20:26.177Z,13.29
2019-04-16T20:25:32.114Z,13.00
2019-04-16T20:30:38.758Z,12.99
2019-04-16T20:35:44.907Z,12.82
2019-04-16T20:40:50.977Z,12.80
2019-04-16T20:45:56.797Z,12.76
2019-04-16T20:51:03.156Z,12.64
2019-04-16T20:56:10.702Z,12.73
2019-04-16T21:01:32.225Z,12.63
2019-04-16T21:06:24.523Z,12.61
2019-04-16T21:11:29.907Z,12.65
2019-04-16T21:16:35.459Z,12.66
2019-04-16T21:21:41.203Z,12.64
2019-04-16T21:26:51.016Z,12.55
2019-04-16T21:32:00.319Z,12.43
2019-04-16T21:37:34.522Z,12.41
2019-04-16T21:42:40.028Z,12.45
2019-04-16T21:47:45.899Z,12.40
2019-04-16T21:52:55.020Z,12.15
2019-04-16T21:57:58.575Z,12.24
2019-04-16T22:03:09.136Z,12.31
2019-04-16T22:08:13.474Z,12.24
2019-04-16T22:13:20.066Z,12.19
2019-04-16T22:18:25.639Z,12.16
2019-04-16T22:23:31.055Z,12.20
2019-04-16T22:28:37.008Z,12.26
2019-04-16T22:33:42.412Z,12.30
2019-04-16T22:38:50.946Z,12.39
2019-04-16T22:44:17.686Z,12.44
2019-04-16T22:49:23.346Z,12.46
2019-04-16T22:54:28.775Z,12.40
2019-04-16T22:59:39.086Z,12.41
2019-04-16T23:04:42.107Z,12.43
2019-04-16T23:09:48.681Z,12.45
2019-04-16T23:14:54.659Z,12.37
2019-04-16T23:20:00.373Z,12.41
2019-04-16T23:25:05.912Z,12.45
2019-04-16T23:30:11.442Z,12.30
2019-04-16T23:35:16.966Z,12.19
2019-04-16T23:40:22.413Z,12.29
2019-04-16T23:45:45.419Z,12.16
2019-04-16T23:51:21.611Z,12.09
2019-04-16T23:56:33.814Z,12.00
